Aeroporto :







RITROVATECI SU...

 
LOGIN :

Iscrizione | Disclaimer

   EN    FR    IT 

 









Sommario :    VFR   VFR Marginale   IFR   IFR Intensivo   IFR Molto Intensivo
Visibilità : 
Base nubi : 
>= 8 km
>= 3000ft
5 / 8 km
1000 / 3000 ft
1500m / 5 km
500 / 1000 ft
800 / 1500m
200 / 500 ft
< 800m
< 200 ft
Simboli :   Temporali  Nebbia  Neve Forte  Precipitazioni Forti  Vento > 20 kt






- Altitudine del aeroporto : 461 ft
- Codice IATA : YYT


CYYT - St John's Int

ULTIMO METAR :
  • 280000Z 27014G//KT 15SM BKN020 01/00 A2937 RMK SC7 WND ESTD SLP953

METARs OBSOLETI :
  • 272300Z 27014KT 15SM FEW007 BKN015 01/00 A2936 RMK SF2SC3 WND ESTD SLP950
  • 272200Z 27015KT 6SM -DZ BR OVC006 01/00 A2936 RMK SF8 WND ESTD SLP950

TAF TAF CYYT
Valido dal 28 a 00 ore il 29 a 00 ore UTC


272338Z 2800/2824 27012G22KT 2SM -DZ BR OVC007
TEMPO 2800/2806 P6SM NSW SCT007 BKN015
PROB40 2800/2806 1SM -FZDZ BR OVC003
FM280600 26012G22KT P6SM BKN008
BECMG 2807/2809 27012KT
FM281500 27012KT P6SM BKN010
FM282000 30010KT 1SM -SN OVC006
PROB30 2820/2824 3/4SM -FZDZ BR VV002 RMK NXT FCST BY 280600Z



MetMap, La meteo Aeronautica in un colpo d'occhio ! - Copyright ORBIFLY Dicembre 2007 - Disclaimer

ORBIFLY MET'MAP TEAM :

Programmazione e sviluppo : Alexandra Zaïnal
Concezione : Baudouin d'Aumeries
Aiuto per la programmazione : Marc-Olivier Méhu
Supporto tecnico e logistico : Manuel Goepfert
Aiuto per la traduzione : Arnaldo La Scala

Contatto : metmap@orbifly.com




FONTI E CREDITI :

   NOAA